Latest Weather Observations for Parafield

IDS60901

Issued at 3:31 pm CST Friday 29 May 2015 (issued every 10 minutes, with the page automatically refreshed every 10 minutes)

About weather observations | Map of Adelaide area stations | Latest observations for Adelaide area | Other Formats
Station Details ID: 023013 Name: PARAFIELD AIRPORT Lat: -34.80 Lon: 138.63 Height: 9.5 m
Data from the previous 72 hours. | See also: Recent months at Parafield
Date/Time
CST
Tmp

°C
App
Tmp
°C
Dew
Point
°C
Rel
Hum
%
Delta-T

°C
Wind Press
QNH
hPa
Press
MSL
hPa
Rain
since
9 am
mm
Dir
 
Spd
km/h
Gust
km/h
Spd
kts
Gust
kts
29/03:30pm 15.8 12.7 7.3 57 4.2 WNW 13 17 7 9 1023.2 1023.1 0.0
29/03:00pm 16.0 13.3 9.0 63 3.6 W 13 17 7 9 1023.2 1023.1 0.0
29/02:30pm 15.9 12.3 10.0 68 3.1 NW 19 24 10 13 1023.3 1023.2 0.0
29/02:00pm 16.2 13.2 7.7 57 4.3 WNW 13 17 7 9 1023.3 1023.2 0.0
29/01:30pm 15.3 11.6 7.8 61 3.7 WNW 17 22 9 12 1023.6 1023.5 0.0
29/01:00pm 15.8 12.6 8.5 62 3.7 NW 15 20 8 11 1023.7 1023.6 0.0
29/12:30pm 15.1 11.9 8.3 64 3.4 W 15 20 8 11 1023.9 1023.8 0.0
29/12:00pm 15.4 11.9 7.4 59 3.9 W 15 22 8 12 1024.1 1024.0 0.0
29/11:30am 14.6 11.4 8.3 66 3.1 W 15 20 8 11 1024.2 1024.1 0.0
29/11:00am 15.4 13.0 8.6 64 3.5 WSW 11 15 6 8 1024.3 1024.2 0.0
29/10:30am 15.2 12.4 8.7 65 3.3 WSW 13 19 7 10 1024.4 1024.3 0.0
29/10:00am 15.7 13.4 10.5 71 2.7 NNW 13 17 7 9 1024.6 1024.5 0.0
29/09:30am 14.8 13.1 11.2 79 1.9 N 11 13 6 7 1024.6 1024.5 0.0
29/09:00am 14.0 12.7 11.2 83 1.5 NNE 9 11 5 6 1024.3 1024.2 0.0
29/08:30am 12.6 11.3 11.2 91 0.7 NNE 9 13 5 7 1024.0 1023.9 0.0
29/08:00am 12.3 10.1 10.9 91 0.7 N 13 15 7 8 1023.9 1023.8 0.0
29/07:30am 11.7 10.2 10.4 92 0.7 NE 9 11 5 6 1023.7 1023.6 0.0
29/07:00am 11.9 10.8 10.5 91 0.7 NNE 7 9 4 5 1023.4 1023.3 0.0
29/06:30am 11.7 11.8 10.3 91 0.7 CALM 0 6 0 3 1023.3 1023.2 0.0
29/06:00am 11.5 11.6 10.1 91 0.7 CALM 0 0 0 0 1022.9 1022.8 0.0
29/05:30am 11.6 11.3 10.2 91 0.7 N 2 6 1 3 1022.8 1022.7 0.0
29/05:00am 11.6 11.3 10.0 90 0.8 N 2 6 1 3 1022.5 1022.4 0.0
29/04:30am 11.6 10.3 9.9 89 0.9 N 7 9 4 5 1022.3 1022.2 0.0
29/04:00am 11.5 11.6 10.1 91 0.7 CALM 0 0 0 0 1022.3 1022.2 0.0
29/03:30am 11.3 9.6 10.0 92 0.7 ENE 9 9 5 5 1022.0 1021.9 0.0
29/03:00am 11.6 11.5 9.5 87 1.1 CALM 0 0 0 0 1022.0 1021.9 0.0
29/02:30am 11.8 11.8 9.7 87 1.1 CALM 0 0 0 0 1021.8 1021.7 0.0
29/02:00am 12.1 10.4 9.8 86 1.2 WNW 9 9 5 5 1022.0 1021.9 0.0
29/01:30am 12.8 11.1 10.0 83 1.4 W 9 11 5 6 1021.7 1021.6 0.0
29/01:00am 13.5 11.2 10.5 82 1.6 W 13 17 7 9 1022.0 1021.9 0.0
29/12:30am 13.5 11.7 10.7 83 1.5 WNW 11 15 6 8 1021.7 1021.6 0.0
29/12:00am 13.7 11.9 10.7 82 1.6 W 11 15 6 8 1021.5 1021.5 0.0
 
Date/Time
CST
Tmp

°C
App
Tmp
°C
Dew
Point
°C
Rel
Hum
%
Delta-T

°C
Wind Press
QNH
hPa
Press
MSL
hPa
Rain
since
9 am
mm
Dir
 
Spd
km/h
Gust
km/h
Spd
kts
Gust
kts
28/11:30pm 13.9 12.1 10.7 81 1.7 W 11 15 6 8 1021.5 1021.5 0.0
28/11:00pm 13.9 11.7 10.7 81 1.7 W 13 17 7 9 1021.8 1021.7 0.0
28/10:30pm 14.0 12.0 11.5 85 1.3 W 13 17 7 9 1021.5 1021.5 0.0
28/10:00pm 13.9 12.3 11.6 86 1.2 WSW 11 15 6 8 1021.3 1021.3 0.0
28/09:30pm 13.6 12.0 11.5 87 1.1 W 11 15 6 8 1021.2 1021.2 0.0
28/09:00pm 13.4 12.1 11.3 87 1.1 WSW 9 11 5 6 1020.9 1020.9 0.0
28/08:30pm 13.9 12.0 11.8 87 1.1 WSW 13 15 7 8 1020.5 1020.5 0.0
28/08:00pm 13.5 12.4 11.9 90 0.9 W 9 13 5 7 1020.3 1020.3 0.0
28/07:30pm 12.7 11.4 11.3 91 0.7 W 9 11 5 6 1020.2 1020.2 0.0
28/07:00pm 13.1 11.9 11.5 90 0.8 W 9 11 5 6 1020.0 1020.0 0.0
28/06:30pm 13.6 12.5 12.0 90 0.9 WNW 9 15 5 8 1019.8 1019.8 0.0
28/06:23pm 13.4 11.9 12.0 91 0.8 WNW 11 17 6 9 1019.8 1019.8 0.0
28/06:07pm 13.7 10.7 11.9 89 1.0 WNW 19 26 10 14 1019.8 1019.8 0.0
28/06:00pm 14.0 12.1 11.7 86 1.2 W 13 17 7 9 1019.7 1019.7 0.0
28/05:30pm 13.8 9.4 11.7 87 1.1 W 26 37 14 20 1019.2 1019.2 0.0
28/05:00pm 15.0 10.9 11.4 79 1.9 W 24 46 13 25 1018.7 1018.7 0.0
28/04:30pm 16.2 13.0 11.8 75 2.4 WNW 20 30 11 16 1018.3 1018.3 0.0
28/04:00pm 16.3 13.2 11.5 73 2.6 W 19 28 10 15 1018.0 1018.0 0.0
28/03:30pm 17.6 13.5 11.4 67 3.4 W 24 32 13 17 1017.8 1017.8 0.0
28/03:00pm 18.1 14.4 11.4 65 3.6 WNW 22 30 12 16 1017.9 1017.9 0.0
28/02:30pm 18.0 13.6 11.6 66 3.5 WNW 26 32 14 17 1017.5 1017.5 0.0
28/02:00pm 18.3 14.8 12.3 68 3.3 WNW 22 32 12 17 1017.5 1017.5 0.0
28/01:30pm 18.2 13.8 11.7 66 3.6 WNW 26 33 14 18 1018.0 1018.0 0.0
28/01:00pm 18.1 14.3 12.3 69 3.2 NW 24 30 13 16 1018.2 1018.2 0.0
28/12:30pm 17.5 13.4 12.8 74 2.6 WNW 26 35 14 19 1018.4 1018.4 0.0
28/12:00pm 17.4 14.7 12.9 75 2.5 NW 19 24 10 13 1018.7 1018.7 0.0
28/11:30am 16.3 14.9 12.3 77 2.2 NNW 11 19 6 10 1019.1 1019.1 0.0
28/11:28am 16.0 14.6 12.2 78 2.1 NNW 11 19 6 10 1019.2 1019.2 0.0
28/11:00am 14.2 12.0 12.2 88 1.1 N 15 20 8 11 1019.6 1019.6 0.0
28/10:30am 12.9 10.7 12.1 95 0.4 N 15 20 8 11 1019.7 1019.7 0.0
28/10:21am 12.9 10.0 12.3 96 0.3 N 19 24 10 13 1019.6 1019.6 0.0
28/10:00am 12.5 9.9 12.0 97 0.3 N 17 20 9 11 1019.6 1019.6 0.0
28/09:30am 12.1 10.1 11.5 96 0.3 NNE 13 17 7 9 1019.7 1019.7 0.0
28/09:09am 12.0 9.5 11.1 94 0.5 NNE 15 20 8 11 1019.6 1019.6 0.0
28/09:00am 11.9 9.7 10.8 93 0.6 N 13 19 7 10 1019.6 1019.6 0.0
28/08:30am 12.7 10.5 10.9 89 0.9 N 13 17 7 9 1019.5 1019.5 0.0
28/08:00am 12.0 9.4 9.4 84 1.3 NNE 13 17 7 9 1019.2 1019.2 0.0
28/07:30am 11.4 9.5 9.0 85 1.2 N 9 13 5 7 1018.9 1018.9 0.0
28/07:00am 9.2 6.8 7.2 87 0.9 NNE 9 11 5 6 1018.8 1018.8 0.0
28/06:30am 9.3 8.2 7.1 86 1.0 NE 2 9 1 5 1018.7 1018.7 0.0
28/06:00am 8.3 5.4 6.3 87 0.9 NNE 11 11 6 6 1018.1 1018.1 0.0
28/05:30am 8.6 7.1 6.9 89 0.8 NNE 4 9 2 5 1017.9 1017.9 0.0
28/05:00am 9.6 9.1 8.0 90 0.8 CALM 0 0 0 0 1018.0 1018.0 0.0
28/04:30am 9.7 9.3 8.1 90 0.8 CALM 0 0 0 0 1017.8 1017.8 0.0
28/04:00am 10.0 8.5 8.6 91 0.7 NNE 6 9 3 5 1017.6 1017.6 0.0
28/03:30am 9.6 7.1 8.4 92 0.6 NE 11 13 6 7 1017.8 1017.8 0.0
28/03:00am 9.1 7.0 8.2 94 0.4 NNE 9 13 5 7 1017.9 1017.9 0.0
28/02:30am 8.0 5.6 7.2 95 0.4 NE 9 11 5 6 1018.0 1018.0 0.0
28/02:05am 9.0 7.9 8.4 96 0.3 W 4 7 2 4 1018.2 1018.2 0.0
28/02:00am 7.8 6.4 7.1 95 0.3 SW 4 7 2 4 1018.2 1018.2 0.0
28/01:46am 7.4 6.6 6.5 94 0.4 CALM 0 7 0 4 1018.3 1018.3 0.0
28/01:30am 8.8 8.3 8.0 95 0.4 CALM 0 0 0 0 1018.3 1018.3 0.0
28/01:00am 8.5 7.9 7.6 94 0.4 CALM 0 0 0 0 1018.0 1018.0 0.0
28/12:30am 9.3 9.0 8.5 95 0.4 CALM 0 0 0 0 1018.0 1018.0 0.0
28/12:05am 9.1 8.7 8.3 95 0.4 CALM 0 0 0 0 1018.1 1018.1 0.0
28/12:00am 9.2 8.8 8.4 95 0.4 CALM 0 0 0 0 1018.1 1018.1 0.0
 
Date/Time
CST
Tmp

°C
App
Tmp
°C
Dew
Point
°C
Rel
Hum
%
Delta-T

°C
Wind Press
QNH
hPa
Press
MSL
hPa
Rain
since
9 am
mm
Dir
 
Spd
km/h
Gust
km/h
Spd
kts
Gust
kts
27/11:42pm 9.7 9.4 8.6 93 0.5 CALM 0 4 0 2 1018.5 1018.5 0.0
27/11:30pm 10.0 9.7 8.6 91 0.7 CALM 0 0 0 0 1018.5 1018.5 0.0
27/11:00pm 10.2 8.4 7.3 82 1.4 NE 6 7 3 4 1018.5 1018.5 0.0
27/10:30pm 11.6 9.7 9.2 85 1.2 NE 9 13 5 7 1018.6 1018.6 0.0
27/10:00pm 11.5 9.2 9.1 85 1.2 NE 11 13 6 7 1018.7 1018.7 0.0
27/09:30pm 13.1 11.2 10.5 84 1.3 NE 11 11 6 6 1019.0 1019.0 0.0
27/09:00pm 11.5 10.4 9.8 89 0.9 NNE 6 7 3 4 1019.2 1019.2 0.0
27/08:30pm 11.6 10.9 10.0 90 0.8 NE 4 9 2 5 1019.0 1019.0 0.0
27/08:00pm 11.2 10.6 9.1 87 1.0 NE 2 6 1 3 1019.0 1019.0 0.0
27/07:30pm 12.5 11.4 10.0 85 1.3 ENE 6 7 3 4 1018.9 1018.9 0.0
27/07:00pm 13.3 13.5 10.7 84 1.4 CALM 0 0 0 0 1018.8 1018.8 0.0
27/06:30pm 13.3 12.3 10.3 82 1.6 NE 6 7 3 4 1018.7 1018.7 0.0
27/06:00pm 14.6 13.7 10.8 78 2.0 NNE 6 7 3 4 1018.6 1018.6 0.0
27/05:30pm 15.5 14.7 11.1 75 2.3 NNE 6 7 3 4 1018.5 1018.5 0.0
27/05:00pm 16.5 15.2 11.4 72 2.8 N 9 9 5 5 1018.6 1018.6 0.0
27/04:30pm 17.9 16.7 11.5 66 3.5 N 9 11 5 6 1018.5 1018.5 0.0
27/04:00pm 18.5 17.4 11.8 65 3.7 NNW 9 11 5 6 1018.7 1018.7 0.0
27/03:30pm 18.7 17.2 11.8 64 3.8 NW 11 19 6 10 1018.9 1018.9 0.0
27/03:00pm 18.8 17.6 12.8 68 3.4 WNW 11 15 6 8 1019.0 1019.0 0.0
27/02:30pm 18.6 17.3 12.6 68 3.3 NW 11 17 6 9 1018.9 1018.9 0.0
27/02:00pm 18.8 17.6 12.8 68 3.4 NW 11 17 6 9 1019.0 1019.0 0.0
27/01:30pm 18.4 17.2 12.8 70 3.1 WNW 11 19 6 10 1019.2 1019.2 0.0
27/01:00pm 18.0 15.5 12.2 69 3.2 NW 17 24 9 13 1019.4 1019.4 0.0
27/12:30pm 18.4 16.7 12.6 69 3.2 NW 13 22 7 12 1019.8 1019.8 0.0
27/12:00pm 18.2 15.7 12.2 68 3.3 NW 17 20 9 11 1020.2 1020.2 0.0
27/11:30am 18.2 15.7 12.4 69 3.2 NW 17 24 9 13 1020.6 1020.6 0.0
27/11:00am 17.8 15.7 11.1 65 3.6 NNW 13 20 7 11 1020.8 1020.8 0.0
27/10:30am 17.4 15.2 10.8 65 3.5 NNW 13 17 7 9 1021.1 1021.1 0.0
27/10:00am 17.0 15.1 10.4 65 3.5 N 11 15 6 8 1021.2 1021.2 0.0
27/09:30am 16.4 14.6 10.7 69 3.0 N 11 15 6 8 1021.2 1021.2 0.0
27/09:00am 15.8 13.8 10.3 70 2.9 NNE 11 15 6 8 1021.3 1021.3 0.0
27/08:30am 14.5 11.8 10.3 76 2.2 NE 15 17 8 9 1021.1 1021.1 0.0
27/08:00am 11.9 9.7 9.5 85 1.2 N 11 15 6 8 1021.0 1021.0 0.0
27/07:30am 12.4 10.3 9.6 83 1.4 NNE 11 15 6 8 1020.8 1020.8 0.0
27/07:00am 12.5 10.4 9.9 84 1.3 NNE 11 13 6 7 1020.5 1020.5 0.0
27/06:30am 11.7 9.1 9.4 86 1.2 NNE 13 17 7 9 1020.3 1020.3 0.0
27/06:00am 12.5 10.5 10.2 86 1.2 NNE 11 13 6 7 1020.2 1020.2 0.0
27/05:30am 11.1 11.2 10.2 94 0.5 CALM 0 0 0 0 1020.1 1020.1 0.0
27/05:00am 10.4 10.3 9.3 93 0.5 CALM 0 0 0 0 1020.2 1020.2 0.0
27/04:30am 10.2 8.8 9.0 92 0.6 NNE 6 7 3 4 1019.9 1019.9 0.0
27/04:00am 10.7 10.5 9.1 90 0.8 CALM 0 0 0 0 1019.8 1019.8 0.0
27/03:30am 10.8 10.7 9.4 91 0.7 CALM 0 0 0 0 1019.9 1019.9 0.0
27/03:00am 10.7 9.3 9.0 89 0.8 E 6 7 3 4 1020.0 1020.0 0.0
27/02:30am 12.4 10.7 10.0 85 1.2 NNE 9 9 5 5 1020.2 1020.2 0.0
27/02:00am 13.4 12.4 10.2 81 1.7 NE 6 7 3 4 1020.5 1020.5 0.0
27/01:30am 13.6 11.4 10.8 83 1.5 NE 13 15 7 8 1020.4 1020.4 0.0
27/01:00am 13.3 11.7 10.1 81 1.7 NNE 9 11 5 6 1020.5 1020.5 0.0
27/12:30am 13.8 11.8 10.0 78 2.0 NNE 11 15 6 8 1020.5 1020.5 0.0
27/12:00am 14.5 13.0 10.5 77 2.1 NNE 9 13 5 7 1020.9 1020.9 0.0
 
Date/Time
CST
Tmp

°C
App
Tmp
°C
Dew
Point
°C
Rel
Hum
%
Delta-T

°C
Wind Press
QNH
hPa
Press
MSL
hPa
Rain
since
9 am
mm
Dir
 
Spd
km/h
Gust
km/h
Spd
kts
Gust
kts
26/11:30pm 13.9 11.7 10.9 82 1.6 NNE 13 15 7 8 1021.1 1021.1 0.0
26/11:00pm 14.4 12.2 10.8 79 1.9 NNE 13 15 7 8 1021.4 1021.4 0.0
26/10:30pm 15.2 14.3 11.2 77 2.1 N 7 11 4 6 1021.8 1021.7 0.0
26/10:00pm 15.2 13.9 11.4 78 2.0 N 9 13 5 7 1021.8 1021.7 0.0
26/09:30pm 14.0 14.5 11.5 85 1.3 CALM 0 0 0 0 1021.7 1021.6 0.0
26/09:00pm 14.7 14.7 11.1 79 1.9 W 2 7 1 4 1021.9 1021.8 0.0
26/08:30pm 16.5 15.3 10.4 67 3.2 NNW 7 11 4 6 1021.7 1021.6 0.0
26/08:00pm 15.1 14.2 11.3 78 2.0 N 7 9 4 5 1021.5 1021.5 0.0
26/07:30pm 15.4 15.2 11.8 79 1.9 NE 4 7 2 4 1021.3 1021.3 0.0
26/07:00pm 15.4 14.3 11.8 79 1.9 NE 9 11 5 6 1021.2 1021.2 0.0
26/06:30pm 15.7 16.2 11.5 76 2.3 CALM 0 7 0 4 1021.1 1021.1 0.0
26/06:00pm 16.1 16.5 11.1 72 2.7 CALM 0 0 0 0 1020.9 1020.9 0.0
26/05:30pm 16.8 17.0 10.4 66 3.4 CALM 0 0 0 0 1020.8 1020.8 0.0
26/05:00pm 18.5 17.3 9.6 56 4.7 WSW 6 7 3 4 1020.7 1020.7 0.0
26/04:30pm 19.6 18.6 10.9 57 4.7 WSW 7 9 4 5 1020.7 1020.7 0.0
26/04:00pm 20.1 18.6 10.5 54 5.2 W 9 13 5 7 1020.8 1020.8 0.0

Latest Capital City Observations: Canberra | Sydney | Melbourne | Brisbane | Adelaide | Perth | Hobart | Darwin

Other Formats:

Comma delimited format used in spreadsheet applications
http://www.bom.gov.au/fwo/IDS60901/IDS60901.95677.axf

JavaScript Object Notation format (JSON) in row-major order
http://www.bom.gov.au/fwo/IDS60901/IDS60901.95677.json